Time;durP1;ratioP1;P1;durP2;ratioP2;P2;SDS_P1;SDS_P2;PMS_P1;PMS_P2;Temp;Humidity;BMP_temperature;BMP_pressure;BME280_temperature;BME280_humidity;BME280_pressure;Samples;Min_cycle;Max_cycle;Signal;HPM_P1;HPM_P2
2022/02/07 00:00:44;;;;;;;1.93;1.83;;;5.40;99.90;;;;;;10389885;28;20206;-81
2022/02/07 00:05:46;;;;;;;2.10;1.90;;;5.40;99.90;;;;;;10376340;28;20300;-81
2022/02/07 00:10:50;;;;;;;1.80;1.80;;;5.30;99.90;;;;;;10374580;28;20249;-81
2022/02/07 00:15:52;;;;;;;2.00;1.90;;;5.30;99.90;;;;;;10364919;28;20218;-82
2022/02/07 00:20:54;;;;;;;1.90;1.80;;;5.20;99.90;;;;;;10364294;28;20293;-82
2022/02/07 00:25:58;;;;;;;2.10;2.00;;;5.20;99.90;;;;;;10375903;28;20226;-82
2022/02/07 00:31:00;;;;;;;1.90;1.80;;;5.20;99.90;;;;;;10352911;28;20217;-81
2022/02/07 00:36:02;;;;;;;1.63;1.57;;;5.30;99.90;;;;;;10364579;28;20214;-82
2022/02/07 00:41:18;;;;;;;1.83;1.73;;;5.30;99.90;;;;;;10363253;28;20233;-81
2022/02/07 00:46:24;;;;;;;1.70;1.60;;;5.20;99.90;;;;;;10371563;28;20571;-82
2022/02/07 00:51:26;;;;;;;1.87;1.87;;;5.20;99.90;;;;;;10347739;28;20208;-81
2022/02/07 00:56:30;;;;;;;1.87;1.77;;;5.30;99.90;;;;;;10381561;28;20233;-81
2022/02/07 01:01:32;;;;;;;2.10;1.97;;;5.30;99.90;;;;;;10366520;28;20195;-81
2022/02/07 01:06:35;;;;;;;1.90;1.80;;;5.30;99.90;;;;;;10362257;28;20226;-81
2022/02/07 01:12:04;;;;;;;1.83;1.77;;;5.30;99.90;;;;;;10362925;28;20519;-81
2022/02/07 01:18:20;;;;;;;2.00;1.87;;;5.20;99.90;;;;;;10339099;28;20222;-81
2022/02/07 01:23:36;;;;;;;1.70;1.70;;;5.20;99.90;;;;;;10362121;28;20773;-82
2022/02/07 01:55:45;;;;;;;1.43;1.20;;;5.40;99.90;;;;;;10291315;28;20307;-82
2022/02/07 02:00:52;;;;;;;1.20;1.20;;;5.50;99.90;;;;;;10373613;28;20206;-81
2022/02/07 02:05:56;;;;;;;1.93;1.40;;;5.60;99.90;;;;;;10396203;23;20257;-78
2022/02/07 02:11:06;;;;;;;1.70;1.60;;;5.60;99.90;;;;;;10403815;28;20237;-78
2022/02/07 02:16:20;;;;;;;2.53;1.50;;;5.70;99.90;;;;;;10409079;28;20223;-78
2022/02/07 02:37:30;;;;;;;2.40;1.37;;;5.80;99.90;;;;;;10377774;28;20206;-78
2022/02/07 02:47:55;;;;;;;1.67;1.57;;;5.80;99.90;;;;;;10354883;28;20235;-79
2022/02/07 02:53:10;;;;;;;1.30;1.20;;;5.80;99.90;;;;;;10360193;28;20202;-78
2022/02/07 02:58:18;;;;;;;1.53;1.43;;;5.70;99.90;;;;;;10376154;28;20219;-79
2022/02/07 03:03:22;;;;;;;1.00;1.00;;;5.70;99.90;;;;;;10375702;28;20214;-78
2022/02/07 03:08:25;;;;;;;1.67;1.57;;;5.60;99.90;;;;;;10375338;28;20235;-77
2022/02/07 03:13:48;;;;;;;2.77;1.50;;;5.70;99.90;;;;;;10377307;28;20191;-78
2022/02/07 03:18:56;;;;;;;1.90;1.80;;;5.70;99.90;;;;;;10377126;28;20276;-78
2022/02/07 03:23:58;;;;;;;3.13;2.00;;;5.70;99.90;;;;;;10377202;28;20269;-78
2022/02/07 03:29:03;;;;;;;4.00;2.53;;;5.70;99.90;;;;;;10376598;28;20280;-78
2022/02/07 03:34:07;;;;;;;6.70;2.13;;;5.70;99.90;;;;;;10377612;28;20301;-78
2022/02/07 03:39:10;;;;;;;2.10;1.90;;;5.70;99.90;;;;;;10377550;28;20260;-78
2022/02/07 03:44:13;;;;;;;2.70;1.80;;;5.70;99.90;;;;;;10375671;28;20309;-78
2022/02/07 03:49:16;;;;;;;4.50;1.27;;;5.70;99.90;;;;;;10353734;28;20235;-78
2022/02/07 03:54:18;;;;;;;1.20;1.20;;;5.60;99.90;;;;;;10373346;28;20194;-78
2022/02/07 03:59:25;;;;;;;2.83;1.50;;;5.30;99.90;;;;;;10372280;28;20206;-78
2022/02/07 04:04:28;;;;;;;4.03;1.80;;;5.00;99.90;;;;;;10358526;28;20254;-78
2022/02/07 04:09:36;;;;;;;1.80;1.70;;;4.80;99.90;;;;;;10370411;28;20200;-78
2022/02/07 04:14:41;;;;;;;6.83;1.90;;;4.60;99.90;;;;;;10369698;28;20713;-78
2022/02/07 04:19:56;;;;;;;2.13;2.03;;;4.50;99.90;;;;;;10375347;28;20659;-78
2022/02/07 04:24:58;;;;;;;1.70;1.60;;;4.40;99.90;;;;;;10353368;28;20233;-79
2022/02/07 04:30:34;;;;;;;2.20;2.00;;;4.30;99.90;;;;;;10344589;28;20207;-78
2022/02/07 04:35:38;;;;;;;1.93;1.83;;;4.30;99.90;;;;;;10379904;28;20298;-78
2022/02/07 04:40:40;;;;;;;0.80;0.80;;;4.30;99.90;;;;;;10380399;28;20237;-78
2022/02/07 04:45:55;;;;;;;1.50;1.47;;;4.30;99.90;;;;;;10377137;28;20229;-78
2022/02/07 04:57:03;;;;;;;1.83;1.27;;;4.30;99.90;;;;;;10374419;28;20313;-78
2022/02/07 05:01:50;;;;;;;4.30;1.40;;;4.20;99.90;;;;;;10373058;28;20226;-78
2022/02/07 05:17:43;;;;;;;3.23;1.83;;;4.20;99.90;;;;;;10298841;28;20245;-78
2022/02/07 05:23:04;;;;;;;4.90;2.10;;;4.20;99.90;;;;;;10372653;28;20235;-78
2022/02/07 05:28:38;;;;;;;8.60;2.07;;;4.30;99.90;;;;;;10359889;28;20225;-78
2022/02/07 05:33:49;;;;;;;4.43;1.80;;;4.20;99.90;;;;;;10356129;28;20217;-78
2022/02/07 05:39:04;;;;;;;6.33;1.37;;;4.20;99.90;;;;;;10366388;28;20652;-78
2022/02/07 05:44:28;;;;;;;1.60;1.50;;;4.20;99.90;;;;;;10376756;28;20214;-79
2022/02/07 05:49:44;;;;;;;3.37;1.80;;;4.20;99.90;;;;;;10354945;28;20670;-79
2022/02/07 05:54:56;;;;;;;4.83;1.80;;;4.20;99.90;;;;;;10366606;28;20215;-79
2022/02/07 06:00:24;;;;;;;1.50;1.40;;;4.30;99.90;;;;;;10350109;28;20211;-79
2022/02/07 06:05:28;;;;;;;2.37;1.60;;;4.40;99.90;;;;;;10352756;28;20218;-79
2022/02/07 06:10:36;;;;;;;2.93;1.87;;;4.50;99.90;;;;;;10375346;28;20210;-79
2022/02/07 06:15:39;;;;;;;3.30;2.03;;;4.50;99.90;;;;;;10374478;28;20277;-79
2022/02/07 06:20:43;;;;;;;3.33;1.87;;;4.50;99.90;;;;;;10378551;28;20237;-79
2022/02/07 06:25:45;;;;;;;2.03;1.67;;;4.60;99.90;;;;;;10374870;28;20233;-79
2022/02/07 06:30:48;;;;;;;3.53;1.80;;;4.70;99.90;;;;;;10368932;28;20202;-79
2022/02/07 06:35:53;;;;;;;2.90;1.70;;;4.70;99.90;;;;;;10364855;28;20225;-79
2022/02/07 06:40:55;;;;;;;5.57;1.67;;;4.80;99.90;;;;;;10370884;28;20206;-79
2022/02/07 06:45:58;;;;;;;5.30;2.00;;;4.70;99.90;;;;;;10375907;28;20577;-79
2022/02/07 06:51:02;;;;;;;6.83;2.17;;;4.70;99.90;;;;;;10374111;28;20206;-79
2022/02/07 06:56:05;;;;;;;3.97;1.90;;;4.80;99.90;;;;;;10352245;28;20653;-79
2022/02/07 07:01:11;;;;;;;3.23;1.40;;;4.70;99.90;;;;;;10362604;28;20216;-79
2022/02/07 07:06:16;;;;;;;3.00;1.40;;;4.70;99.90;;;;;;10368329;28;20313;-79
2022/02/07 07:11:23;;;;;;;2.10;1.30;;;4.80;99.90;;;;;;10368573;28;20293;-78
2022/02/07 07:16:50;;;;;;;4.63;1.50;;;4.90;99.90;;;;;;10366075;28;20230;-79
2022/02/07 07:21:54;;;;;;;4.73;1.60;;;4.90;99.90;;;;;;10359211;28;20213;-79
2022/02/07 07:26:57;;;;;;;6.00;2.23;;;5.10;99.90;;;;;;10375103;28;20226;-79
2022/02/07 07:32:04;;;;;;;6.17;2.37;;;5.20;99.90;;;;;;10373054;28;20337;-79
2022/02/07 07:37:10;;;;;;;4.23;1.70;;;5.20;99.90;;;;;;10374711;28;20396;-78
2022/02/07 07:42:13;;;;;;;3.23;1.80;;;5.20;99.90;;;;;;10375205;28;20202;-78
2022/02/07 07:47:49;;;;;;;6.43;1.80;;;5.10;99.90;;;;;;10360388;28;20265;-79
2022/02/07 07:53:43;;;;;;;6.73;1.93;;;5.20;99.90;;;;;;10355614;28;20206;-79
2022/02/07 08:04:39;;;;;;;2.20;1.37;;;5.00;99.90;;;;;;10397482;23;20226;-82
2022/02/07 08:15:00;;;;;;;3.07;1.97;;;5.00;99.90;;;;;;10356106;28;20223;-83
2022/02/07 08:20:02;;;;;;;6.43;2.30;;;5.00;99.90;;;;;;10342188;28;20199;-83
2022/02/07 08:25:07;;;;;;;4.17;1.67;;;5.00;99.90;;;;;;10347924;28;20256;-80
2022/02/07 08:30:09;;;;;;;7.13;1.90;;;5.10;99.90;;;;;;10337266;28;20339;-83
2022/02/07 08:35:11;;;;;;;3.53;1.80;;;5.10;99.90;;;;;;10320712;28;20222;-82
2022/02/07 08:40:15;;;;;;;7.70;2.00;;;5.20;99.90;;;;;;10346158;28;20689;-84
2022/02/07 08:45:18;;;;;;;4.67;1.90;;;5.20;99.90;;;;;;10335542;28;20315;-83
2022/02/07 08:50:20;;;;;;;3.03;1.93;;;5.20;99.90;;;;;;10340031;28;20331;-82
2022/02/07 08:55:29;;;;;;;6.70;1.73;;;5.30;99.90;;;;;;10314847;28;20218;-81
2022/02/07 09:00:42;;;;;;;3.90;1.87;;;5.30;99.90;;;;;;10307255;28;20687;-81
2022/02/07 09:05:51;;;;;;;4.33;1.97;;;5.60;99.90;;;;;;10322514;28;20223;-81
2022/02/07 09:10:56;;;;;;;5.40;1.97;;;5.80;99.90;;;;;;10327219;28;20204;-83
2022/02/07 09:16:16;;;;;;;2.63;1.70;;;6.00;99.90;;;;;;10320493;28;20215;-81
2022/02/07 09:21:18;;;;;;;4.67;1.73;;;6.20;99.90;;;;;;10340594;28;20238;-82
2022/02/07 09:26:22;;;;;;;4.10;1.40;;;6.30;99.90;;;;;;10321605;28;20687;-81
2022/02/07 09:31:24;;;;;;;5.27;2.30;;;6.40;99.90;;;;;;10332219;28;20203;-81
2022/02/07 09:36:26;;;;;;;3.53;2.07;;;6.60;99.90;;;;;;10327793;28;20216;-82
2022/02/07 09:41:33;;;;;;;6.13;2.67;;;6.60;99.90;;;;;;10335017;28;20210;-83
2022/02/07 09:46:44;;;;;;;8.50;2.00;;;6.70;99.90;;;;;;10355000;28;20262;-83
2022/02/07 09:51:48;;;;;;;5.60;2.30;;;6.70;99.90;;;;;;10354544;28;20199;-83
2022/02/07 09:56:52;;;;;;;5.90;1.60;;;6.80;99.90;;;;;;10326509;28;20245;-84
2022/02/07 10:01:58;;;;;;;6.60;2.20;;;6.80;99.90;;;;;;10348603;28;20573;-82
2022/02/07 10:07:14;;;;;;;3.53;1.87;;;6.90;99.90;;;;;;10334197;28;20261;-81
2022/02/07 10:12:31;;;;;;;4.53;1.97;;;7.00;99.90;;;;;;10338779;28;20206;-83
2022/02/07 10:17:44;;;;;;;4.37;1.93;;;7.10;99.90;;;;;;10363024;28;20242;-81
2022/02/07 10:34:30;;;;;;;11.37;2.53;;;7.00;99.90;;;;;;10338013;28;20693;-82
2022/02/07 10:39:33;;;;;;;6.20;2.10;;;6.90;99.90;;;;;;10330780;28;20219;-80
2022/02/07 10:44:43;;;;;;;5.77;2.37;;;7.00;99.90;;;;;;10344592;28;20241;-81
2022/02/07 10:50:04;;;;;;;5.27;1.47;;;6.90;99.90;;;;;;10337717;28;20207;-81
2022/02/07 10:55:19;;;;;;;6.47;2.13;;;6.90;99.90;;;;;;10348305;28;20222;-82
2022/02/07 11:00:28;;;;;;;5.63;2.10;;;6.90;99.90;;;;;;10339351;28;20210;-79
2022/02/07 11:05:36;;;;;;;7.07;2.20;;;6.80;99.90;;;;;;10357806;28;20227;-82
2022/02/07 11:11:02;;;;;;;7.90;2.43;;;6.80;99.90;;;;;;10340087;28;20242;-81
2022/02/07 11:16:10;;;;;;;2.67;1.60;;;6.90;99.90;;;;;;10376928;28;20214;-82
2022/02/07 11:21:21;;;;;;;4.93;2.20;;;7.10;99.90;;;;;;10345719;28;20194;-82
2022/02/07 11:26:30;;;;;;;3.20;1.80;;;7.40;99.90;;;;;;10332155;28;20242;-82
2022/02/07 11:31:42;;;;;;;3.47;1.70;;;7.60;99.90;;;;;;10382238;28;20687;-82
2022/02/07 11:36:44;;;;;;;3.63;1.90;;;7.70;99.90;;;;;;10393240;28;20257;-82
2022/02/07 11:42:05;;;;;;;6.90;2.20;;;7.70;99.90;;;;;;10345179;28;20670;-82
2022/02/07 11:47:16;;;;;;;6.50;1.77;;;7.70;99.90;;;;;;10338205;28;20235;-79
2022/02/07 11:52:28;;;;;;;7.40;1.67;;;7.70;99.90;;;;;;10364981;28;20314;-79
2022/02/07 11:57:36;;;;;;;2.30;1.60;;;7.60;99.90;;;;;;10319533;28;20247;-79
2022/02/07 12:02:47;;;;;;;4.07;2.10;;;7.60;99.90;;;;;;10324106;28;20345;-80
2022/02/07 12:08:01;;;;;;;4.37;1.70;;;7.50;99.90;;;;;;10354134;28;20242;-82
2022/02/07 12:13:08;;;;;;;5.17;2.27;;;7.50;99.90;;;;;;10340782;28;20199;-80
2022/02/07 12:18:21;;;;;;;4.00;1.97;;;7.50;99.90;;;;;;10350937;28;20220;-80
2022/02/07 12:23:28;;;;;;;5.10;1.87;;;7.50;99.90;;;;;;10335881;28;20208;-79
2022/02/07 12:28:41;;;;;;;4.50;1.80;;;7.50;99.90;;;;;;10341740;28;20227;-79
2022/02/07 12:33:46;;;;;;;5.47;1.70;;;7.50;99.90;;;;;;10340632;28;20203;-79
2022/02/07 12:38:48;;;;;;;5.03;2.00;;;7.50;99.90;;;;;;10338792;28;20223;-80
2022/02/07 12:43:53;;;;;;;4.93;1.80;;;7.70;99.90;;;;;;10361316;28;20641;-81
2022/02/07 12:48:58;;;;;;;3.53;1.60;;;7.70;99.90;;;;;;10318784;28;20230;-80
2022/02/07 12:54:01;;;;;;;5.47;2.00;;;7.80;99.90;;;;;;10324338;28;20266;-83
2022/02/07 12:59:05;;;;;;;5.27;2.10;;;7.90;99.90;;;;;;10373055;28;20219;-80
2022/02/07 13:04:10;;;;;;;8.63;2.53;;;8.00;99.90;;;;;;10351612;28;20199;-82
2022/02/07 13:09:14;;;;;;;6.10;2.37;;;8.00;99.90;;;;;;10337616;28;20660;-81
2022/02/07 13:14:17;;;;;;;7.00;2.40;;;7.90;99.90;;;;;;10348556;28;20233;-81
2022/02/07 13:19:21;;;;;;;2.87;1.90;;;7.90;99.90;;;;;;10338257;28;20223;-81
2022/02/07 13:24:30;;;;;;;5.13;2.03;;;7.90;99.90;;;;;;10337969;28;20678;-81
2022/02/07 13:29:38;;;;;;;4.07;2.00;;;7.90;99.90;;;;;;10337520;28;20223;-80
2022/02/07 13:34:41;;;;;;;9.77;2.67;;;7.90;99.90;;;;;;10337606;28;20209;-83
2022/02/07 13:39:56;;;;;;;3.03;1.60;;;8.00;99.90;;;;;;10343069;28;20610;-82
2022/02/07 13:45:03;;;;;;;4.13;2.13;;;8.00;99.90;;;;;;10381564;28;20625;-82
2022/02/07 13:50:10;;;;;;;3.77;1.60;;;8.00;99.90;;;;;;10339966;28;20258;-81
2022/02/07 13:55:18;;;;;;;2.70;1.83;;;8.00;99.90;;;;;;10336746;28;20233;-81
2022/02/07 14:00:21;;;;;;;3.13;2.00;;;8.00;99.90;;;;;;10334178;28;20332;-82
2022/02/07 14:05:35;;;;;;;4.83;2.40;;;8.00;99.90;;;;;;10361858;23;20222;-80
2022/02/07 14:10:38;;;;;;;5.13;2.13;;;8.00;99.90;;;;;;10377501;28;20241;-79
2022/02/07 14:15:40;;;;;;;4.73;2.43;;;7.90;99.90;;;;;;10378087;28;20238;-78
2022/02/07 14:20:45;;;;;;;4.40;1.80;;;7.90;99.90;;;;;;10377151;28;20209;-79
2022/02/07 14:25:51;;;;;;;4.77;1.50;;;7.80;99.90;;;;;;10377490;28;20344;-79
2022/02/07 14:30:54;;;;;;;4.00;1.90;;;7.80;99.90;;;;;;10377505;28;20202;-79
2022/02/07 14:35:57;;;;;;;7.17;2.20;;;7.70;99.90;;;;;;10359900;28;20248;-80
2022/02/07 14:41:00;;;;;;;2.30;1.67;;;7.70;99.90;;;;;;10359911;28;20233;-79
2022/02/07 14:46:09;;;;;;;6.97;2.83;;;7.70;99.90;;;;;;10359579;28;20225;-78
2022/02/07 14:51:13;;;;;;;4.87;2.50;;;7.70;99.90;;;;;;10378451;28;20221;-79
2022/02/07 14:56:15;;;;;;;6.80;2.30;;;7.70;99.90;;;;;;10377587;28;20566;-78
2022/02/07 15:01:17;;;;;;;7.37;2.63;;;7.60;99.90;;;;;;10376763;28;20205;-78
2022/02/07 15:06:21;;;;;;;7.37;2.43;;;7.60;99.90;;;;;;10376773;28;20290;-78
2022/02/07 15:11:24;;;;;;;8.43;2.37;;;7.60;99.90;;;;;;10376873;28;20202;-79
2022/02/07 15:16:26;;;;;;;5.47;2.47;;;7.50;99.90;;;;;;10371152;28;20222;-78
2022/02/07 15:21:30;;;;;;;4.10;2.33;;;7.30;99.90;;;;;;10375560;28;20206;-78
2022/02/07 15:26:32;;;;;;;6.50;3.30;;;7.20;99.90;;;;;;10374066;28;20317;-79
2022/02/07 15:31:34;;;;;;;4.60;2.50;;;7.10;99.90;;;;;;10374749;28;20209;-79
2022/02/07 15:36:38;;;;;;;4.57;2.33;;;7.00;99.90;;;;;;10387344;28;20230;-80
2022/02/07 15:41:43;;;;;;;5.90;2.33;;;7.00;99.90;;;;;;10392307;28;20206;-79
2022/02/07 15:46:45;;;;;;;8.90;1.93;;;6.90;99.90;;;;;;10382173;28;20253;-79
2022/02/07 15:51:48;;;;;;;4.00;2.50;;;6.80;99.90;;;;;;10381256;28;20286;-78
2022/02/07 15:56:50;;;;;;;3.37;2.00;;;6.80;99.90;;;;;;10382398;28;20224;-79
2022/02/07 16:01:52;;;;;;;5.83;2.77;;;6.80;99.90;;;;;;10380634;28;20266;-78
2022/02/07 16:06:56;;;;;;;4.83;3.00;;;6.80;99.90;;;;;;10383104;28;20261;-81
2022/02/07 16:12:00;;;;;;;4.37;2.00;;;6.70;99.90;;;;;;10368664;28;20293;-80
2022/02/07 16:17:03;;;;;;;7.50;2.13;;;6.70;99.90;;;;;;10367296;28;20223;-81
2022/02/07 16:22:08;;;;;;;7.37;2.53;;;6.60;99.90;;;;;;10385433;28;20202;-79
2022/02/07 16:27:14;;;;;;;5.57;2.97;;;6.60;99.90;;;;;;10392721;28;20231;-80
2022/02/07 16:32:18;;;;;;;6.10;2.67;;;6.60;99.90;;;;;;10389495;28;20208;-79
2022/02/07 16:37:21;;;;;;;4.80;2.30;;;6.50;99.90;;;;;;10366254;28;20249;-80
2022/02/07 16:42:23;;;;;;;8.73;3.70;;;6.50;99.90;;;;;;10384240;28;20206;-80
2022/02/07 16:47:25;;;;;;;6.97;3.17;;;6.50;99.90;;;;;;10381838;28;20679;-80
2022/02/07 16:52:31;;;;;;;5.90;2.80;;;6.40;99.90;;;;;;10383415;28;20576;-80
2022/02/07 16:57:34;;;;;;;6.60;2.70;;;6.40;99.90;;;;;;10382825;28;20294;-80
2022/02/07 17:02:38;;;;;;;6.77;2.60;;;6.40;99.90;;;;;;10367478;28;20298;-80
2022/02/07 17:07:45;;;;;;;6.90;2.73;;;6.40;99.90;;;;;;10386281;28;20230;-80
2022/02/07 17:12:48;;;;;;;6.60;3.27;;;6.30;99.90;;;;;;10369136;28;20198;-80
2022/02/07 17:17:50;;;;;;;6.63;3.77;;;6.40;99.90;;;;;;10365770;28;20214;-80
2022/02/07 17:22:54;;;;;;;8.27;3.07;;;6.30;99.90;;;;;;10362446;28;20207;-78
2022/02/07 17:27:56;;;;;;;8.70;3.23;;;6.30;99.90;;;;;;10377306;28;20254;-78
2022/02/07 17:32:58;;;;;;;7.07;3.40;;;6.30;99.90;;;;;;10378602;28;20575;-78
2022/02/07 17:38:02;;;;;;;6.03;3.03;;;6.30;99.90;;;;;;10360595;28;20217;-78
2022/02/07 17:43:10;;;;;;;5.00;3.00;;;6.20;99.90;;;;;;10379625;28;20195;-79
2022/02/07 17:48:12;;;;;;;9.67;3.50;;;6.20;99.90;;;;;;10376998;28;20240;-79
2022/02/07 17:53:15;;;;;;;10.40;3.63;;;6.20;99.90;;;;;;10376779;28;20226;-78
2022/02/07 17:58:19;;;;;;;5.70;3.63;;;6.20;99.90;;;;;;10359003;28;20215;-79
2022/02/07 18:03:26;;;;;;;5.47;3.20;;;6.20;99.90;;;;;;10376787;28;20220;-79
2022/02/07 18:08:29;;;;;;;6.87;2.90;;;6.10;99.90;;;;;;10376340;28;20226;-79
2022/02/07 18:13:32;;;;;;;3.33;2.70;;;6.10;99.90;;;;;;10375962;28;20205;-79
2022/02/07 18:18:35;;;;;;;5.10;2.97;;;6.00;99.90;;;;;;10375863;28;20210;-77
2022/02/07 18:23:38;;;;;;;4.50;2.90;;;5.90;99.90;;;;;;10378227;28;20206;-78
2022/02/07 18:28:41;;;;;;;4.67;3.10;;;5.90;99.90;;;;;;10377924;28;20305;-78
2022/02/07 18:33:43;;;;;;;7.50;3.77;;;5.80;99.90;;;;;;10375711;28;20203;-79
2022/02/07 18:38:52;;;;;;;7.67;3.27;;;5.80;99.90;;;;;;10357544;28;20229;-78
2022/02/07 18:43:56;;;;;;;6.53;3.60;;;5.80;99.90;;;;;;10374963;28;20198;-78
2022/02/07 18:48:58;;;;;;;7.97;3.73;;;5.80;99.90;;;;;;10373905;28;20221;-79
2022/02/07 18:54:01;;;;;;;10.43;3.57;;;5.80;99.90;;;;;;10373936;28;20197;-79
2022/02/07 18:59:12;;;;;;;7.77;3.67;;;5.80;99.90;;;;;;10374388;28;20242;-78
2022/02/07 19:04:22;;;;;;;6.20;3.63;;;5.70;99.90;;;;;;10359598;28;20206;-80
2022/02/07 19:09:25;;;;;;;11.60;3.80;;;5.70;99.90;;;;;;10376311;28;20226;-79
2022/02/07 19:14:27;;;;;;;10.80;3.73;;;5.70;99.90;;;;;;10381626;28;20194;-80
2022/02/07 19:19:33;;;;;;;7.60;4.00;;;5.60;99.90;;;;;;10385386;28;20297;-80
2022/02/07 19:24:40;;;;;;;9.50;4.33;;;5.60;99.90;;;;;;10367086;28;20205;-80
2022/02/07 19:29:47;;;;;;;10.17;4.27;;;5.60;99.90;;;;;;10386229;28;20226;-79
2022/02/07 19:34:54;;;;;;;7.37;3.60;;;5.60;99.90;;;;;;10380127;28;20309;-80
2022/02/07 19:39:58;;;;;;;7.37;5.30;;;5.60;99.90;;;;;;10390337;28;20650;-80
2022/02/07 19:45:06;;;;;;;14.40;7.27;;;5.60;99.90;;;;;;10385640;28;20237;-79
2022/02/07 19:50:09;;;;;;;7.03;5.20;;;5.50;99.90;;;;;;10384169;28;20591;-78
2022/02/07 19:55:13;;;;;;;10.33;6.03;;;5.50;99.90;;;;;;10369720;28;20229;-78
2022/02/07 20:00:17;;;;;;;6.03;3.10;;;5.40;99.90;;;;;;10388247;28;20654;-79
2022/02/07 20:05:21;;;;;;;5.23;3.97;;;5.50;99.90;;;;;;10408579;23;20285;-82
2022/02/07 20:10:30;;;;;;;5.47;3.50;;;5.40;99.90;;;;;;10321111;28;20234;-82
2022/02/07 20:15:34;;;;;;;7.57;4.70;;;5.40;99.90;;;;;;10350650;28;20287;-81
2022/02/07 20:20:37;;;;;;;8.70;4.77;;;5.40;99.90;;;;;;10338304;28;20195;-81
2022/02/07 20:25:41;;;;;;;6.40;3.87;;;5.50;99.90;;;;;;10290235;28;20235;-81
2022/02/07 20:30:44;;;;;;;9.93;4.50;;;5.50;99.90;;;;;;10306892;28;20212;-81
2022/02/07 20:35:46;;;;;;;8.63;4.30;;;5.50;99.90;;;;;;10325296;28;20653;-80
2022/02/07 20:40:50;;;;;;;9.07;3.67;;;5.50;99.90;;;;;;10314316;28;20195;-82
2022/02/07 20:45:52;;;;;;;9.00;4.00;;;5.50;99.90;;;;;;10337205;28;20266;-82
2022/02/07 20:50:54;;;;;;;9.43;4.10;;;5.50;99.90;;;;;;10316520;28;20227;-81
2022/02/07 20:55:58;;;;;;;5.60;3.50;;;5.50;99.90;;;;;;10321118;28;20249;-82
2022/02/07 21:01:02;;;;;;;4.63;3.87;;;5.50;99.90;;;;;;10329425;28;20282;-80
2022/02/07 21:06:06;;;;;;;9.67;4.10;;;5.50;99.90;;;;;;10318909;28;20238;-81
2022/02/07 21:11:09;;;;;;;7.20;4.40;;;5.50;99.90;;;;;;10297645;28;20220;-80
2022/02/07 21:16:11;;;;;;;10.03;4.63;;;5.50;99.90;;;;;;10295487;28;20224;-81
2022/02/07 21:21:14;;;;;;;7.10;3.80;;;5.40;99.90;;;;;;10320456;28;20303;-81
2022/02/07 21:26:18;;;;;;;6.10;3.93;;;5.40;99.90;;;;;;10321090;28;20255;-81
2022/02/07 21:31:24;;;;;;;8.60;3.97;;;5.40;99.90;;;;;;10305198;28;20216;-81
2022/02/07 21:36:31;;;;;;;8.23;3.60;;;5.40;99.90;;;;;;10309793;28;20711;-82
2022/02/07 21:41:36;;;;;;;6.00;3.70;;;5.40;99.90;;;;;;10278823;28;20327;-81
2022/02/07 21:46:40;;;;;;;3.83;3.30;;;5.40;99.90;;;;;;10326389;28;20593;-82
2022/02/07 21:51:42;;;;;;;10.50;3.93;;;5.30;99.90;;;;;;10327536;28;20223;-82
2022/02/07 21:56:46;;;;;;;4.07;3.20;;;5.30;99.90;;;;;;10318901;28;20569;-82
2022/02/07 22:01:48;;;;;;;6.00;4.07;;;5.30;99.90;;;;;;10331102;28;20307;-82
2022/02/07 22:06:51;;;;;;;5.47;3.53;;;5.30;99.90;;;;;;10332088;28;20714;-82
2022/02/07 22:11:59;;;;;;;7.23;3.67;;;5.30;99.90;;;;;;10329400;28;20212;-82
2022/02/07 22:17:04;;;;;;;9.30;4.10;;;5.30;99.90;;;;;;10338073;28;20299;-81
2022/02/07 22:22:07;;;;;;;8.00;3.57;;;5.30;99.90;;;;;;10329818;28;20258;-81
2022/02/07 22:27:11;;;;;;;6.13;3.37;;;5.30;99.90;;;;;;10326710;28;20300;-82
2022/02/07 22:32:13;;;;;;;5.67;3.87;;;5.30;99.90;;;;;;10305134;28;20644;-82
2022/02/07 22:37:15;;;;;;;6.93;4.30;;;5.30;99.90;;;;;;10314227;28;20215;-82
2022/02/07 22:42:19;;;;;;;10.40;4.27;;;5.30;99.90;;;;;;10328763;28;20210;-81
2022/02/07 22:47:21;;;;;;;5.23;4.07;;;5.20;99.90;;;;;;10329051;28;20258;-79
2022/02/07 22:52:23;;;;;;;3.30;3.10;;;5.20;99.90;;;;;;10339030;28;20286;-79
2022/02/07 22:57:27;;;;;;;5.33;3.80;;;5.20;99.90;;;;;;10307260;28;20588;-79
2022/02/07 23:02:29;;;;;;;5.93;3.40;;;5.10;99.90;;;;;;10303353;28;20232;-79
2022/02/07 23:07:39;;;;;;;5.63;3.30;;;5.10;99.90;;;;;;10308928;28;20702;-79
2022/02/07 23:12:56;;;;;;;4.80;3.53;;;5.00;99.90;;;;;;10329628;28;20198;-81
2022/02/07 23:18:14;;;;;;;4.23;3.33;;;5.00;99.90;;;;;;10325182;28;20263;-81
2022/02/07 23:39:36;;;;;;;5.20;3.20;;;5.00;99.90;;;;;;10280490;28;20233;-79
2022/02/07 23:44:40;;;;;;;4.50;3.00;;;5.00;99.90;;;;;;10287321;28;20207;-79
2022/02/07 23:49:59;;;;;;;7.20;3.20;;;5.00;99.90;;;;;;10305142;28;20231;-80
2022/02/07 23:55:12;;;;;;;4.33;3.47;;;5.00;99.90;;;;;;10334611;28;20200;-80
